Time;durP1;ratioP1;P1;durP2;ratioP2;P2;SDS_P1;SDS_P2;PMS_P1;PMS_P2;Temp;Humidity;BMP_temperature;BMP_pressure;BME280_temperature;BME280_humidity;BME280_pressure;Samples;Min_cycle;Max_cycle;Signal;HPM_P1;HPM_P2
2023/08/23 00:00:25;;;;;;;11.65;5.57;;;;;;;;;;4994635;28;20030;-47
2023/08/23 00:02:50;;;;;;;20.40;4.97;;;;;;;;;;4993803;28;20046;-47
2023/08/23 00:05:15;;;;;;;15.52;5.07;;;;;;;;;;4996129;28;20430;-50
2023/08/23 00:07:41;;;;;;;10.35;5.07;;;;;;;;;;4995211;28;20029;-50
2023/08/23 00:10:07;;;;;;;14.63;4.75;;;;;;;;;;4996216;28;20034;-51
2023/08/23 00:12:32;;;;;;;15.20;5.13;;;;;;;;;;4994472;28;20317;-49
2023/08/23 00:14:58;;;;;;;13.93;5.40;;;;;;;;;;4992750;28;20054;-48
2023/08/23 00:17:23;;;;;;;13.45;5.25;;;;;;;;;;4995944;28;20064;-50
2023/08/23 00:19:48;;;;;;;17.15;5.22;;;;;;;;;;4994761;28;20070;-48
2023/08/23 00:22:14;;;;;;;16.88;4.85;;;;;;;;;;4993652;28;20105;-49
2023/08/23 00:24:39;;;;;;;11.65;5.13;;;;;;;;;;4996000;28;20038;-48
2023/08/23 00:27:04;;;;;;;15.57;5.35;;;;;;;;;;4995930;28;20030;-49
2023/08/23 00:29:30;;;;;;;15.52;5.20;;;;;;;;;;4991678;28;20536;-52
2023/08/23 00:31:55;;;;;;;10.82;5.80;;;;;;;;;;4990868;28;20054;-49
2023/08/23 00:34:21;;;;;;;12.48;4.70;;;;;;;;;;4996532;28;20409;-48
2023/08/23 00:36:46;;;;;;;13.57;5.25;;;;;;;;;;4994669;28;20516;-49
2023/08/23 00:39:12;;;;;;;16.50;5.22;;;;;;;;;;4996339;28;20526;-47
2023/08/23 00:41:37;;;;;;;14.57;5.10;;;;;;;;;;4995143;28;20041;-49
2023/08/23 00:44:03;;;;;;;13.88;5.65;;;;;;;;;;4994668;28;20038;-48
2023/08/23 00:46:29;;;;;;;14.75;5.53;;;;;;;;;;4994815;28;20022;-46
2023/08/23 00:48:54;;;;;;;19.00;5.53;;;;;;;;;;4994407;28;20036;-47
2023/08/23 00:51:20;;;;;;;19.33;5.65;;;;;;;;;;4992212;28;20448;-48
2023/08/23 00:53:46;;;;;;;20.45;4.88;;;;;;;;;;4994118;28;20046;-51
2023/08/23 00:56:11;;;;;;;16.70;5.25;;;;;;;;;;4995994;28;20038;-50
2023/08/23 00:58:37;;;;;;;16.63;5.22;;;;;;;;;;4994036;28;20030;-47
2023/08/23 01:01:03;;;;;;;20.27;4.65;;;;;;;;;;4994552;28;20088;-49
2023/08/23 01:03:28;;;;;;;12.82;4.72;;;;;;;;;;4991199;28;20612;-48
2023/08/23 01:06:34;;;;;;;21.98;4.80;;;;;;;;;;4995739;28;20034;-48
2023/08/23 01:09:22;;;;;;;23.27;5.22;;;;;;;;;;4991772;28;20125;-45
2023/08/23 01:12:03;;;;;;;9.75;4.90;;;;;;;;;;4994514;28;20109;-51
2023/08/23 01:14:54;;;;;;;10.60;4.63;;;;;;;;;;4993091;28;20460;-47
2023/08/23 01:17:22;;;;;;;13.38;5.32;;;;;;;;;;4997643;28;20029;-47
2023/08/23 01:19:50;;;;;;;14.82;4.78;;;;;;;;;;4996706;28;20057;-50
2023/08/23 01:22:20;;;;;;;12.98;4.85;;;;;;;;;;4999674;28;20034;-48
2023/08/23 01:24:47;;;;;;;12.07;4.90;;;;;;;;;;4998656;28;20394;-51
2023/08/23 01:27:13;;;;;;;21.95;4.78;;;;;;;;;;4993071;28;20023;-48
2023/08/23 01:29:38;;;;;;;18.40;5.15;;;;;;;;;;4997284;28;20042;-50
2023/08/23 01:32:23;;;;;;;12.73;4.60;;;;;;;;;;4990000;28;20033;-51
2023/08/23 01:34:53;;;;;;;14.10;5.22;;;;;;;;;;4993413;28;20041;-49
2023/08/23 01:37:22;;;;;;;16.05;4.70;;;;;;;;;;4996249;28;20124;-51
2023/08/23 01:39:50;;;;;;;13.75;5.00;;;;;;;;;;4997810;28;20046;-49
2023/08/23 01:42:16;;;;;;;17.67;4.90;;;;;;;;;;4999697;28;20491;-48
2023/08/23 01:44:43;;;;;;;13.23;4.72;;;;;;;;;;4994494;28;20035;-48
2023/08/23 01:47:08;;;;;;;19.25;4.72;;;;;;;;;;4999381;28;20192;-48
2023/08/23 01:49:34;;;;;;;13.00;4.88;;;;;;;;;;4997360;28;20050;-47
2023/08/23 01:51:59;;;;;;;12.05;5.28;;;;;;;;;;4995869;28;20064;-49
2023/08/23 01:54:25;;;;;;;11.27;4.72;;;;;;;;;;4996649;28;20080;-49
2023/08/23 01:56:50;;;;;;;11.00;4.93;;;;;;;;;;4998122;28;20030;-49
2023/08/23 01:59:15;;;;;;;13.60;5.10;;;;;;;;;;4998585;28;20023;-49
2023/08/23 02:01:41;;;;;;;13.32;5.15;;;;;;;;;;4999152;28;20113;-47
2023/08/23 02:04:06;;;;;;;12.63;5.55;;;;;;;;;;4998323;28;20932;-48
2023/08/23 02:06:31;;;;;;;19.15;5.55;;;;;;;;;;4996693;28;20026;-47
2023/08/23 02:08:57;;;;;;;16.77;5.10;;;;;;;;;;4996215;28;20042;-50
2023/08/23 02:11:22;;;;;;;12.32;4.75;;;;;;;;;;4998172;28;20041;-51
2023/08/23 02:13:48;;;;;;;11.77;4.57;;;;;;;;;;4995504;28;20052;-52
2023/08/23 02:16:13;;;;;;;9.63;4.78;;;;;;;;;;4998355;28;20480;-49
2023/08/23 02:18:38;;;;;;;12.13;5.13;;;;;;;;;;4998492;28;20034;-47
2023/08/23 02:21:04;;;;;;;14.75;5.00;;;;;;;;;;4993786;28;20038;-52
2023/08/23 02:23:29;;;;;;;10.30;4.72;;;;;;;;;;4994885;28;20194;-48
2023/08/23 02:25:54;;;;;;;19.25;4.63;;;;;;;;;;4998223;28;20046;-48
2023/08/23 02:28:20;;;;;;;12.85;5.07;;;;;;;;;;4995286;28;20045;-47
2023/08/23 02:30:45;;;;;;;11.43;5.15;;;;;;;;;;4995156;28;20038;-46
2023/08/23 02:33:11;;;;;;;12.27;4.65;;;;;;;;;;4991883;28;20058;-46
2023/08/23 02:35:41;;;;;;;16.63;4.47;;;;;;;;;;4994456;28;20054;-46
2023/08/23 02:38:08;;;;;;;15.23;5.10;;;;;;;;;;4994565;28;20045;-49
2023/08/23 02:40:34;;;;;;;18.38;5.00;;;;;;;;;;4997484;28;20056;-50
2023/08/23 02:42:59;;;;;;;9.38;4.60;;;;;;;;;;4996682;28;20073;-46
2023/08/23 02:45:25;;;;;;;17.80;4.85;;;;;;;;;;4998336;28;20030;-47
2023/08/23 02:47:50;;;;;;;13.32;4.85;;;;;;;;;;4994813;28;20088;-51
2023/08/23 02:50:16;;;;;;;14.25;5.25;;;;;;;;;;4996382;28;20033;-48
2023/08/23 02:52:41;;;;;;;13.45;4.47;;;;;;;;;;4998010;28;20109;-48
2023/08/23 02:55:07;;;;;;;18.30;4.65;;;;;;;;;;4996416;28;20177;-48
2023/08/23 02:57:32;;;;;;;10.85;4.90;;;;;;;;;;4997905;28;20030;-50
2023/08/23 02:59:57;;;;;;;10.25;4.25;;;;;;;;;;4994635;28;20513;-48
2023/08/23 03:02:23;;;;;;;15.55;4.72;;;;;;;;;;4993553;28;20104;-47
2023/08/23 03:04:48;;;;;;;9.30;4.18;;;;;;;;;;4997660;28;20035;-51
2023/08/23 03:07:14;;;;;;;15.88;4.88;;;;;;;;;;4996671;28;20046;-49
2023/08/23 03:09:39;;;;;;;14.68;4.72;;;;;;;;;;4997440;28;20058;-50
2023/08/23 03:12:05;;;;;;;12.15;4.85;;;;;;;;;;4996286;28;20112;-47
2023/08/23 03:14:31;;;;;;;11.25;4.50;;;;;;;;;;4994719;28;20047;-49
2023/08/23 03:16:56;;;;;;;13.38;4.55;;;;;;;;;;4995544;28;20428;-47
2023/08/23 03:19:21;;;;;;;13.00;4.85;;;;;;;;;;4996569;28;20046;-50
2023/08/23 03:21:47;;;;;;;12.50;4.80;;;;;;;;;;4996683;28;20082;-51
2023/08/23 03:24:12;;;;;;;15.20;5.13;;;;;;;;;;4995432;28;20038;-51
2023/08/23 03:26:37;;;;;;;19.08;4.97;;;;;;;;;;4997490;28;20034;-48
2023/08/23 03:29:03;;;;;;;11.05;5.03;;;;;;;;;;4995253;28;20054;-52
2023/08/23 03:31:28;;;;;;;22.10;4.80;;;;;;;;;;4993901;28;20045;-46
2023/08/23 03:33:54;;;;;;;13.35;4.85;;;;;;;;;;4991824;28;20031;-49
2023/08/23 03:36:19;;;;;;;9.38;4.22;;;;;;;;;;4994252;28;20030;-48
2023/08/23 03:38:44;;;;;;;11.82;4.38;;;;;;;;;;4993304;28;20034;-49
2023/08/23 03:41:13;;;;;;;13.63;4.43;;;;;;;;;;4996735;28;20114;-48
2023/08/23 03:43:39;;;;;;;6.72;4.35;;;;;;;;;;4994153;28;20121;-48
2023/08/23 03:46:04;;;;;;;19.60;4.72;;;;;;;;;;4993859;28;20062;-50
2023/08/23 03:48:30;;;;;;;13.77;4.57;;;;;;;;;;4996625;28;20046;-49
2023/08/23 03:50:59;;;;;;;10.90;4.10;;;;;;;;;;4996545;28;20065;-49
2023/08/23 03:53:25;;;;;;;12.65;4.72;;;;;;;;;;4995387;28;20092;-50
2023/08/23 03:55:56;;;;;;;11.57;4.55;;;;;;;;;;4993902;28;20061;-51
2023/08/23 03:58:22;;;;;;;17.90;5.15;;;;;;;;;;4994965;28;20034;-47
2023/08/23 04:00:53;;;;;;;13.30;4.72;;;;;;;;;;4996983;28;20030;-50
2023/08/23 04:03:19;;;;;;;;;;;;;;;;;;4992149;28;20404;-48
2023/08/23 04:05:44;;;;;;;7.38;4.68;;;;;;;;;;4992168;28;19914;-52
2023/08/23 04:08:10;;;;;;;13.27;4.82;;;;;;;;;;4996329;28;20043;-48
2023/08/23 04:10:36;;;;;;;12.05;4.55;;;;;;;;;;4996398;28;20030;-52
2023/08/23 04:13:02;;;;;;;20.27;5.25;;;;;;;;;;4996034;28;20050;-49
2023/08/23 04:15:27;;;;;;;14.15;4.63;;;;;;;;;;4994736;28;20026;-53
2023/08/23 04:17:53;;;;;;;14.48;4.35;;;;;;;;;;4995879;28;20061;-48
2023/08/23 04:20:18;;;;;;;18.25;5.25;;;;;;;;;;4988801;28;20485;-49
2023/08/23 04:22:43;;;;;;;10.68;4.43;;;;;;;;;;4995298;28;20484;-49
2023/08/23 04:25:10;;;;;;;12.65;4.28;;;;;;;;;;4992197;28;20081;-52
2023/08/23 04:27:35;;;;;;;9.07;4.40;;;;;;;;;;4991877;28;20026;-51
2023/08/23 04:30:01;;;;;;;12.45;4.90;;;;;;;;;;4996404;28;20455;-47
2023/08/23 04:32:27;;;;;;;12.10;4.38;;;;;;;;;;4996018;28;20023;-49
2023/08/23 04:34:52;;;;;;;13.73;4.65;;;;;;;;;;4996631;28;20034;-46
2023/08/23 04:37:17;;;;;;;10.93;4.53;;;;;;;;;;4994884;28;20042;-46
2023/08/23 04:39:43;;;;;;;15.25;4.80;;;;;;;;;;4995808;28;20126;-53
2023/08/23 04:42:08;;;;;;;9.57;4.47;;;;;;;;;;4991720;28;20038;-47
2023/08/23 04:44:34;;;;;;;9.43;4.47;;;;;;;;;;4992506;28;20061;-49
2023/08/23 04:46:59;;;;;;;14.65;4.45;;;;;;;;;;4996157;28;20168;-48
2023/08/23 04:49:24;;;;;;;18.00;4.60;;;;;;;;;;4995891;28;20049;-46
2023/08/23 04:51:50;;;;;;;13.98;4.50;;;;;;;;;;5000417;28;20038;-48
2023/08/23 04:54:15;;;;;;;10.02;4.18;;;;;;;;;;5000487;28;20073;-51
2023/08/23 04:56:40;;;;;;;22.75;4.65;;;;;;;;;;5002651;28;20015;-49
2023/08/23 04:59:06;;;;;;;15.57;5.00;;;;;;;;;;5002294;28;20038;-48
2023/08/23 05:01:31;;;;;;;12.07;4.32;;;;;;;;;;5001852;28;20022;-47
2023/08/23 05:03:57;;;;;;;15.00;4.80;;;;;;;;;;5001625;28;20515;-50
2023/08/23 05:06:22;;;;;;;12.65;4.70;;;;;;;;;;4998672;28;20934;-48
2023/08/23 05:08:47;;;;;;;15.13;4.53;;;;;;;;;;5032588;28;20046;-49
2023/08/23 05:11:13;;;;;;;19.80;4.55;;;;;;;;;;5001602;28;20113;-52
2023/08/23 05:13:38;;;;;;;19.08;4.65;;;;;;;;;;5001288;28;20496;-53
2023/08/23 05:16:04;;;;;;;11.82;4.18;;;;;;;;;;4998965;28;20022;-46
2023/08/23 05:18:29;;;;;;;19.70;5.07;;;;;;;;;;5002297;28;20128;-52
2023/08/23 05:20:57;;;;;;;12.07;4.90;;;;;;;;;;5002246;28;20618;-49
2023/08/23 05:23:23;;;;;;;15.15;4.45;;;;;;;;;;4998351;28;20049;-46
2023/08/23 05:25:51;;;;;;;16.48;4.78;;;;;;;;;;4997565;28;20544;-49
2023/08/23 05:28:19;;;;;;;10.68;3.85;;;;;;;;;;4990843;28;20046;-50
2023/08/23 05:30:46;;;;;;;19.27;5.28;;;;;;;;;;4998647;28;20030;-49
2023/08/23 05:33:12;;;;;;;24.15;5.20;;;;;;;;;;4999127;28;20031;-48
2023/08/23 05:35:39;;;;;;;14.18;5.13;;;;;;;;;;4999583;28;20408;-46
2023/08/23 05:38:04;;;;;;;13.00;5.07;;;;;;;;;;5002071;28;20531;-50
2023/08/23 05:40:30;;;;;;;14.40;4.75;;;;;;;;;;5002283;28;20022;-48
2023/08/23 05:42:55;;;;;;;7.95;4.75;;;;;;;;;;4997332;28;20494;-48
2023/08/23 05:45:22;;;;;;;18.40;3.97;;;;;;;;;;4998798;28;20022;-48
2023/08/23 05:47:47;;;;;;;12.02;4.72;;;;;;;;;;5000081;28;20046;-50
2023/08/23 05:50:12;;;;;;;16.58;4.28;;;;;;;;;;4996906;28;20026;-48
2023/08/23 05:52:38;;;;;;;15.13;5.00;;;;;;;;;;5000383;28;20053;-49
2023/08/23 05:55:07;;;;;;;14.30;4.82;;;;;;;;;;4998138;28;20026;-49
2023/08/23 05:57:32;;;;;;;15.75;5.07;;;;;;;;;;4987639;28;20030;-49
2023/08/23 05:59:58;;;;;;;17.20;4.22;;;;;;;;;;4994513;28;20109;-50
2023/08/23 06:02:23;;;;;;;13.13;4.68;;;;;;;;;;4989637;28;20058;-48
2023/08/23 06:04:48;;;;;;;13.18;5.35;;;;;;;;;;4991452;28;20066;-49
2023/08/23 06:07:15;;;;;;;13.32;4.50;;;;;;;;;;4997262;28;20026;-48
2023/08/23 06:09:41;;;;;;;7.40;4.80;;;;;;;;;;4993760;28;20034;-50
2023/08/23 06:12:06;;;;;;;13.10;5.43;;;;;;;;;;4993562;28;20048;-48
2023/08/23 06:14:32;;;;;;;12.10;4.90;;;;;;;;;;4994142;28;20737;-50
2023/08/23 06:16:57;;;;;;;7.50;4.78;;;;;;;;;;4988083;28;20057;-49
2023/08/23 06:19:22;;;;;;;15.90;5.90;;;;;;;;;;4993766;28;20579;-50
2023/08/23 06:21:48;;;;;;;15.13;5.40;;;;;;;;;;4993950;28;20030;-46
2023/08/23 06:24:13;;;;;;;14.75;5.18;;;;;;;;;;4996725;28;20034;-51
2023/08/23 06:26:39;;;;;;;11.35;5.18;;;;;;;;;;4996268;28;20022;-51
2023/08/23 06:29:04;;;;;;;13.95;5.57;;;;;;;;;;4998109;28;20034;-49
2023/08/23 06:31:30;;;;;;;14.60;5.60;;;;;;;;;;4998124;28;20042;-50
2023/08/23 06:33:55;;;;;;;20.17;6.00;;;;;;;;;;4995901;28;20045;-48
2023/08/23 06:36:21;;;;;;;17.92;5.88;;;;;;;;;;4995598;28;20118;-49
2023/08/23 06:38:47;;;;;;;13.90;6.25;;;;;;;;;;4992736;28;20046;-50
2023/08/23 06:41:12;;;;;;;14.18;5.85;;;;;;;;;;4994931;28;20030;-53
2023/08/23 06:43:38;;;;;;;12.20;5.88;;;;;;;;;;4990706;28;20141;-50
2023/08/23 06:46:03;;;;;;;12.35;5.97;;;;;;;;;;4994708;28;20121;-50
2023/08/23 06:48:28;;;;;;;11.10;5.88;;;;;;;;;;4995517;28;20129;-49
2023/08/23 06:50:54;;;;;;;13.43;5.57;;;;;;;;;;4994878;28;20034;-51
2023/08/23 06:53:20;;;;;;;14.60;6.35;;;;;;;;;;4994082;28;20038;-54
2023/08/23 06:55:46;;;;;;;13.43;6.03;;;;;;;;;;4988924;28;20034;-46
2023/08/23 06:58:11;;;;;;;17.48;6.55;;;;;;;;;;4994084;28;20043;-47
2023/08/23 07:00:37;;;;;;;8.20;5.40;;;;;;;;;;4996094;28;20041;-51
2023/08/23 07:03:02;;;;;;;22.10;6.80;;;;;;;;;;4996706;28;20040;-48
2023/08/23 07:05:28;;;;;;;9.10;6.18;;;;;;;;;;4995611;28;20038;-48
2023/08/23 07:07:54;;;;;;;11.70;5.95;;;;;;;;;;4995391;28;20108;-48
2023/08/23 07:10:20;;;;;;;14.35;6.20;;;;;;;;;;4993050;28;20027;-49
2023/08/23 07:12:45;;;;;;;8.95;5.57;;;;;;;;;;4994955;28;20057;-49
2023/08/23 07:15:11;;;;;;;19.25;6.10;;;;;;;;;;4995603;28;20033;-50
2023/08/23 07:17:36;;;;;;;11.13;5.93;;;;;;;;;;4988304;28;20023;-49
2023/08/23 07:20:06;;;;;;;9.40;6.35;;;;;;;;;;4992353;28;20031;-47
2023/08/23 07:22:31;;;;;;;15.45;5.72;;;;;;;;;;4992959;28;20544;-48
2023/08/23 07:24:57;;;;;;;20.55;6.50;;;;;;;;;;4993898;28;20030;-49
2023/08/23 07:27:22;;;;;;;11.85;5.65;;;;;;;;;;4995022;28;20030;-48
2023/08/23 07:29:48;;;;;;;10.27;6.10;;;;;;;;;;4993146;28;20117;-51
2023/08/23 07:32:13;;;;;;;14.48;6.07;;;;;;;;;;5025519;28;20030;-50
2023/08/23 07:34:39;;;;;;;18.55;6.25;;;;;;;;;;4995995;28;20057;-48
2023/08/23 07:37:06;;;;;;;22.80;6.28;;;;;;;;;;4992496;28;20098;-49
2023/08/23 07:39:31;;;;;;;9.93;6.03;;;;;;;;;;4991402;28;20034;-48
2023/08/23 07:41:56;;;;;;;14.52;5.78;;;;;;;;;;4996867;28;20041;-51
2023/08/23 07:44:22;;;;;;;16.75;7.20;;;;;;;;;;4996482;28;20041;-50
2023/08/23 07:46:47;;;;;;;13.48;6.35;;;;;;;;;;4996350;28;20026;-51
2023/08/23 07:49:14;;;;;;;12.18;6.40;;;;;;;;;;4994952;28;20073;-49
2023/08/23 07:51:39;;;;;;;12.98;6.65;;;;;;;;;;4997196;28;20035;-51
2023/08/23 07:54:06;;;;;;;14.63;6.63;;;;;;;;;;4993175;28;20399;-48
2023/08/23 07:56:31;;;;;;;38.08;7.47;;;;;;;;;;4992950;28;20026;-49
2023/08/23 07:58:57;;;;;;;25.35;7.18;;;;;;;;;;4991476;28;20096;-51
2023/08/23 08:01:22;;;;;;;20.83;7.03;;;;;;;;;;4994760;28;20072;-52
2023/08/23 08:03:48;;;;;;;19.85;7.18;;;;;;;;;;4996402;28;20030;-49
2023/08/23 08:06:13;;;;;;;30.13;7.18;;;;;;;;;;4989607;28;20066;-50
2023/08/23 08:08:42;;;;;;;21.33;7.57;;;;;;;;;;4982902;28;20038;-50
2023/08/23 08:11:08;;;;;;;35.63;7.55;;;;;;;;;;4995613;28;20019;-49
2023/08/23 08:13:34;;;;;;;26.38;7.03;;;;;;;;;;4993391;28;20058;-49
2023/08/23 08:16:12;;;;;;;14.90;6.97;;;;;;;;;;4990184;28;20473;-48
2023/08/23 08:18:38;;;;;;;37.97;8.13;;;;;;;;;;4987972;28;20669;-50
2023/08/23 08:21:04;;;;;;;18.63;7.10;;;;;;;;;;4991394;28;20041;-50
2023/08/23 08:23:29;;;;;;;25.70;7.53;;;;;;;;;;4989878;28;20034;-49
2023/08/23 08:25:55;;;;;;;16.17;7.10;;;;;;;;;;4989446;28;20034;-52
2023/08/23 08:28:21;;;;;;;19.30;6.82;;;;;;;;;;4987699;28;20046;-52
2023/08/23 08:30:46;;;;;;;21.77;6.60;;;;;;;;;;4992948;28;20109;-53
2023/08/23 08:33:12;;;;;;;20.52;7.28;;;;;;;;;;4988046;28;20042;-53
2023/08/23 08:35:37;;;;;;;21.40;7.20;;;;;;;;;;4994563;28;20042;-51
2023/08/23 08:38:03;;;;;;;21.80;8.07;;;;;;;;;;4993467;28;20043;-54
2023/08/23 08:40:29;;;;;;;19.33;7.00;;;;;;;;;;4986304;28;20106;-49
2023/08/23 08:42:55;;;;;;;19.30;7.40;;;;;;;;;;4986754;28;20046;-53
2023/08/23 08:45:20;;;;;;;29.65;7.60;;;;;;;;;;4987468;28;20034;-47
2023/08/23 08:47:50;;;;;;;16.55;7.50;;;;;;;;;;4993705;28;20049;-49
2023/08/23 08:50:16;;;;;;;20.02;7.18;;;;;;;;;;4990522;28;20027;-49
2023/08/23 08:52:48;;;;;;;23.75;8.27;;;;;;;;;;4992786;28;20066;-51
2023/08/23 08:55:15;;;;;;;17.88;6.93;;;;;;;;;;4986856;28;20035;-48
2023/08/23 08:57:42;;;;;;;16.95;6.65;;;;;;;;;;4989605;28;20030;-49
2023/08/23 09:00:08;;;;;;;22.70;7.00;;;;;;;;;;4985087;28;20026;-47
2023/08/23 09:02:34;;;;;;;29.05;7.13;;;;;;;;;;4988394;28;20061;-50
2023/08/23 09:05:01;;;;;;;21.98;7.78;;;;;;;;;;4991296;28;20724;-51
2023/08/23 09:07:27;;;;;;;24.17;7.47;;;;;;;;;;4994638;28;20030;-51
2023/08/23 09:09:52;;;;;;;17.75;7.65;;;;;;;;;;4994626;28;20023;-50
2023/08/23 09:12:19;;;;;;;14.90;6.85;;;;;;;;;;4995913;28;20598;-50
2023/08/23 09:14:49;;;;;;;16.20;6.60;;;;;;;;;;4992461;28;20066;-51
2023/08/23 09:17:15;;;;;;;18.38;7.43;;;;;;;;;;4995258;28;20034;-52
2023/08/23 09:19:40;;;;;;;20.20;7.15;;;;;;;;;;4991317;28;20098;-52
2023/08/23 09:22:06;;;;;;;13.55;6.75;;;;;;;;;;4991670;28;20409;-49
2023/08/23 09:24:31;;;;;;;36.40;7.22;;;;;;;;;;4995354;28;20038;-51
2023/08/23 09:26:57;;;;;;;16.80;7.35;;;;;;;;;;4995643;28;20042;-51
2023/08/23 09:29:26;;;;;;;35.25;7.60;;;;;;;;;;4995050;28;20042;-49
2023/08/23 09:31:51;;;;;;;26.13;7.30;;;;;;;;;;4994535;28;20069;-50
2023/08/23 09:34:17;;;;;;;22.75;7.05;;;;;;;;;;4997695;28;20516;-52
2023/08/23 09:36:43;;;;;;;22.08;7.22;;;;;;;;;;4992831;28;20050;-53
2023/08/23 09:39:12;;;;;;;18.58;7.47;;;;;;;;;;4995984;28;20109;-52
2023/08/23 09:41:42;;;;;;;15.65;7.13;;;;;;;;;;4998578;28;20029;-48
2023/08/23 09:44:08;;;;;;;20.00;7.60;;;;;;;;;;4999010;28;20120;-50
2023/08/23 09:46:35;;;;;;;18.33;7.57;;;;;;;;;;4997901;28;20122;-52
2023/08/23 09:49:05;;;;;;;14.27;5.57;;;;;;;;;;4999041;28;20679;-52
2023/08/23 09:51:35;;;;;;;16.23;5.55;;;;;;;;;;4995980;28;20672;-49
2023/08/23 09:54:10;;;;;;;12.70;4.60;;;;;;;;;;4997384;28;20038;-51
2023/08/23 09:56:36;;;;;;;11.57;5.03;;;;;;;;;;4996572;28;20030;-49
2023/08/23 09:59:02;;;;;;;10.07;4.65;;;;;;;;;;4996902;28;20043;-50
2023/08/23 10:01:28;;;;;;;9.98;4.88;;;;;;;;;;4992986;28;20026;-50
2023/08/23 10:03:53;;;;;;;13.38;5.60;;;;;;;;;;4995351;28;20049;-53
2023/08/23 10:06:21;;;;;;;15.02;5.10;;;;;;;;;;4994340;28;20041;-53
2023/08/23 10:08:47;;;;;;;15.30;5.10;;;;;;;;;;4995202;28;20053;-49
2023/08/23 10:11:13;;;;;;;16.10;5.10;;;;;;;;;;4988696;28;20485;-48
2023/08/23 10:13:39;;;;;;;8.57;5.20;;;;;;;;;;4994934;28;20036;-47
2023/08/23 10:16:07;;;;;;;16.20;5.65;;;;;;;;;;4998792;28;20033;-48
2023/08/23 10:18:34;;;;;;;16.90;5.05;;;;;;;;;;4995553;28;20057;-52
2023/08/23 10:21:02;;;;;;;14.73;4.50;;;;;;;;;;4990927;28;20069;-50
2023/08/23 10:23:29;;;;;;;15.43;4.57;;;;;;;;;;4987069;28;20126;-50
2023/08/23 10:25:54;;;;;;;10.93;4.18;;;;;;;;;;4996899;28;20030;-48
2023/08/23 10:28:20;;;;;;;10.32;4.15;;;;;;;;;;4992535;28;20054;-49
2023/08/23 10:30:48;;;;;;;13.18;4.88;;;;;;;;;;4993871;28;20039;-49
2023/08/23 10:33:15;;;;;;;13.23;4.50;;;;;;;;;;4996118;28;20078;-51
2023/08/23 10:35:45;;;;;;;22.83;4.82;;;;;;;;;;4995458;28;20050;-54
2023/08/23 10:38:11;;;;;;;13.45;4.57;;;;;;;;;;4994240;28;20054;-51
2023/08/23 10:40:40;;;;;;;13.77;4.30;;;;;;;;;;4990124;28;20046;-47
2023/08/23 10:43:24;;;;;;;11.75;4.82;;;;;;;;;;4994015;28;20038;-48
2023/08/23 10:45:50;;;;;;;16.33;4.63;;;;;;;;;;4998156;28;20038;-47
2023/08/23 10:48:21;;;;;;;18.33;4.55;;;;;;;;;;4995405;28;20050;-49
2023/08/23 10:50:48;;;;;;;13.40;4.68;;;;;;;;;;4995291;28;20035;-50
2023/08/23 10:53:18;;;;;;;16.73;4.93;;;;;;;;;;4993238;28;20049;-49
2023/08/23 10:55:44;;;;;;;10.40;4.23;;;;;;;;;;4993023;28;20032;-51
2023/08/23 10:58:11;;;;;;;12.52;4.28;;;;;;;;;;4990161;28;20067;-49
2023/08/23 11:00:37;;;;;;;18.13;5.30;;;;;;;;;;4992671;28;20052;-47
2023/08/23 11:03:04;;;;;;;12.25;4.57;;;;;;;;;;4995383;28;20046;-49
2023/08/23 11:05:30;;;;;;;10.85;4.30;;;;;;;;;;4996171;28;20395;-50
2023/08/23 11:07:57;;;;;;;15.55;4.20;;;;;;;;;;4995599;28;20041;-49
2023/08/23 11:10:25;;;;;;;19.27;5.75;;;;;;;;;;4995601;28;20026;-48
2023/08/23 11:12:50;;;;;;;15.90;4.82;;;;;;;;;;4995125;28;20038;-52
2023/08/23 11:15:16;;;;;;;13.75;4.90;;;;;;;;;;4995440;28;20550;-48
2023/08/23 11:17:41;;;;;;;10.75;4.25;;;;;;;;;;4982415;28;20504;-48
2023/08/23 11:20:10;;;;;;;13.38;4.45;;;;;;;;;;4994679;28;20055;-51
2023/08/23 11:22:35;;;;;;;16.25;4.88;;;;;;;;;;4996902;28;20029;-48
2023/08/23 11:25:02;;;;;;;13.60;4.70;;;;;;;;;;4996069;28;20030;-50
2023/08/23 11:27:28;;;;;;;17.48;5.05;;;;;;;;;;4989856;28;20022;-50
2023/08/23 11:29:57;;;;;;;8.45;4.35;;;;;;;;;;4992234;28;20064;-52
2023/08/23 11:32:23;;;;;;;9.35;4.07;;;;;;;;;;4995060;28;20045;-48
2023/08/23 11:34:49;;;;;;;11.88;4.40;;;;;;;;;;4995116;28;20122;-48
2023/08/23 11:37:14;;;;;;;16.02;4.55;;;;;;;;;;4991686;28;20061;-51
2023/08/23 11:39:40;;;;;;;9.43;3.88;;;;;;;;;;4993076;28;20043;-48
2023/08/23 11:42:05;;;;;;;22.15;4.38;;;;;;;;;;4994938;28;20388;-50
2023/08/23 11:44:31;;;;;;;11.25;4.50;;;;;;;;;;4986077;28;20089;-50
2023/08/23 11:46:58;;;;;;;9.02;3.72;;;;;;;;;;4996218;28;20045;-49
2023/08/23 11:49:23;;;;;;;11.63;3.92;;;;;;;;;;4992690;28;20065;-52
2023/08/23 11:51:50;;;;;;;7.63;3.90;;;;;;;;;;4994772;28;20037;-49
2023/08/23 11:54:17;;;;;;;12.65;3.90;;;;;;;;;;4992923;28;20042;-47
2023/08/23 11:56:44;;;;;;;15.52;4.00;;;;;;;;;;4993803;28;20487;-48
2023/08/23 11:59:11;;;;;;;25.98;5.13;;;;;;;;;;4993568;28;20054;-49
2023/08/23 12:01:38;;;;;;;14.32;3.65;;;;;;;;;;4992052;28;20022;-48
2023/08/23 12:04:04;;;;;;;14.35;3.97;;;;;;;;;;4990227;28;21125;-48
2023/08/23 12:06:30;;;;;;;17.40;4.13;;;;;;;;;;4985479;28;20042;-51
2023/08/23 12:08:56;;;;;;;16.17;4.32;;;;;;;;;;4993641;28;20034;-53
2023/08/23 12:11:21;;;;;;;23.60;4.50;;;;;;;;;;4994486;28;20387;-50
2023/08/23 12:13:47;;;;;;;14.32;4.10;;;;;;;;;;4992350;28;20073;-53
2023/08/23 12:16:13;;;;;;;11.88;3.88;;;;;;;;;;4994120;28;20880;-52
2023/08/23 12:18:38;;;;;;;16.35;4.45;;;;;;;;;;5002095;28;20038;-51
2023/08/23 12:21:04;;;;;;;14.05;3.80;;;;;;;;;;4994179;28;20120;-49
2023/08/23 12:23:30;;;;;;;7.63;3.83;;;;;;;;;;4994238;28;20799;-50
2023/08/23 12:25:56;;;;;;;15.05;4.07;;;;;;;;;;4996722;28;20034;-48
2023/08/23 12:28:21;;;;;;;21.73;4.45;;;;;;;;;;4993269;28;20031;-47
2023/08/23 12:30:47;;;;;;;10.07;3.80;;;;;;;;;;4995992;28;20453;-54
2023/08/23 12:33:12;;;;;;;23.83;4.03;;;;;;;;;;4990638;28;20121;-55
2023/08/23 12:35:37;;;;;;;15.60;3.97;;;;;;;;;;4991592;28;20074;-51
2023/08/23 12:38:03;;;;;;;15.43;3.97;;;;;;;;;;4995774;28;20038;-53
2023/08/23 12:40:29;;;;;;;12.48;3.83;;;;;;;;;;4989632;28;20077;-49
2023/08/23 12:42:54;;;;;;;17.35;4.03;;;;;;;;;;4993596;28;20381;-48
2023/08/23 12:45:20;;;;;;;9.18;3.15;;;;;;;;;;4994832;28;20030;-51
2023/08/23 12:47:46;;;;;;;12.57;4.35;;;;;;;;;;4994332;28;20060;-49
2023/08/23 12:50:11;;;;;;;9.38;3.55;;;;;;;;;;4995418;28;20137;-52
2023/08/23 12:52:38;;;;;;;12.57;3.28;;;;;;;;;;4993959;28;20025;-50
2023/08/23 12:55:04;;;;;;;18.30;4.25;;;;;;;;;;4994087;28;20109;-50
2023/08/23 12:57:31;;;;;;;18.45;3.70;;;;;;;;;;4995376;28;20038;-52
2023/08/23 12:59:57;;;;;;;10.52;3.58;;;;;;;;;;4993404;28;20041;-50
2023/08/23 13:02:22;;;;;;;12.48;3.83;;;;;;;;;;4995044;28;20033;-51
2023/08/23 13:04:48;;;;;;;23.40;3.85;;;;;;;;;;4994862;28;20463;-50
2023/08/23 13:07:13;;;;;;;24.17;3.53;;;;;;;;;;4995682;28;20539;-48
2023/08/23 13:09:39;;;;;;;18.80;3.40;;;;;;;;;;4993139;28;20531;-49
2023/08/23 13:12:04;;;;;;;19.10;3.67;;;;;;;;;;4995094;28;20081;-54
2023/08/23 13:14:30;;;;;;;12.55;3.53;;;;;;;;;;4999220;28;20462;-54
2023/08/23 13:16:55;;;;;;;11.95;3.20;;;;;;;;;;4999922;28;20100;-51
2023/08/23 13:19:20;;;;;;;21.17;3.80;;;;;;;;;;4997811;28;20034;-54
2023/08/23 13:21:46;;;;;;;10.98;3.38;;;;;;;;;;4998067;28;20030;-50
2023/08/23 13:24:19;;;;;;;12.13;3.08;;;;;;;;;;4997593;28;20037;-55
2023/08/23 13:26:45;;;;;;;17.52;3.38;;;;;;;;;;4993746;28;20034;-49
2023/08/23 13:29:10;;;;;;;4.78;3.30;;;;;;;;;;4998197;28;20046;-53
2023/08/23 13:31:36;;;;;;;7.97;3.25;;;;;;;;;;4998215;28;20408;-54
2023/08/23 13:34:01;;;;;;;14.50;3.90;;;;;;;;;;4997506;28;20500;-54
2023/08/23 13:36:26;;;;;;;15.02;3.40;;;;;;;;;;4999464;28;20045;-50
2023/08/23 13:38:52;;;;;;;16.90;3.20;;;;;;;;;;4998127;28;20423;-54
2023/08/23 13:41:17;;;;;;;7.40;3.05;;;;;;;;;;4998046;28;20436;-52
2023/08/23 13:43:42;;;;;;;10.50;3.90;;;;;;;;;;4997398;28;20664;-51
2023/08/23 13:46:08;;;;;;;6.38;2.97;;;;;;;;;;4998613;28;20026;-50
2023/08/23 13:48:33;;;;;;;12.98;3.70;;;;;;;;;;4998301;28;20046;-51
2023/08/23 13:50:59;;;;;;;20.52;3.75;;;;;;;;;;4996195;28;20027;-50
2023/08/23 13:53:24;;;;;;;13.88;3.60;;;;;;;;;;4998573;28;20038;-54
2023/08/23 13:55:50;;;;;;;6.25;2.90;;;;;;;;;;4999432;28;20113;-51
2023/08/23 13:58:15;;;;;;;13.60;3.15;;;;;;;;;;4994468;28;20069;-53
2023/08/23 14:00:40;;;;;;;10.10;3.53;;;;;;;;;;4998924;28;20477;-53
2023/08/23 14:03:06;;;;;;;11.15;2.95;;;;;;;;;;4997618;28;20034;-49
2023/08/23 14:05:31;;;;;;;19.77;3.13;;;;;;;;;;4997115;28;20080;-52
2023/08/23 14:07:57;;;;;;;7.45;3.03;;;;;;;;;;4996674;28;20049;-49
2023/08/23 14:10:22;;;;;;;9.52;3.33;;;;;;;;;;4998801;28;20026;-49
2023/08/23 14:12:47;;;;;;;9.35;3.40;;;;;;;;;;4995790;28;20034;-50
2023/08/23 14:15:13;;;;;;;13.98;3.20;;;;;;;;;;4995281;28;20038;-51
2023/08/23 14:17:41;;;;;;;6.68;2.60;;;;;;;;;;4996231;28;20034;-52
2023/08/23 14:20:08;;;;;;;10.05;3.08;;;;;;;;;;4998876;28;20093;-53
2023/08/23 14:22:34;;;;;;;19.67;3.30;;;;;;;;;;4998089;28;20037;-48
2023/08/23 14:24:59;;;;;;;5.55;3.00;;;;;;;;;;4991319;28;20038;-48